Portada
METAR-TAF:

METAR-TAF

Aeroports :

Peru-LaSalle, Illinois, Estats Units d'Amèrica

Illinois Valley Regional Airport (Walter A. Duncan Field)

latitud: 41-21-07N, longitud: 089-09-11W, altitud: 199 m

Observació

L'informe es va fer fa 15 hores i 55 minuts, a les 15:15 UTC
Vent 10 kt del Sud
Temperatura 15°C
Humitat 94%
Pressió 1010 hPa
Visibilitat: 16.1 km
Cel cobert a una alçada de 3800 ft

METAR: KVYS 201515Z AUTO 19010KT 10SM OVC038 15/14 A2983 RMK AO2 T01490135

Hora: 01:10 (07:10 UTC)


TAF: manca

Observacions i pronòstics meteorològics de més de 4000 aeroports (METAR i TAF).

Les estacions disponibles són els punts grocs i vermells al mapa.

Posi el ratolí al punt desitjat per veure el nom de l'estació.

Feu clic per veure les observacions i els pronòstics meteorològics.

Per canviar el mapa: feu clic els botons verds amb una creu de color negre per apropar; al botó verd amb un guió per allunyar la imatge; o en les fletxes verdes per a mapes adjacents.


METAR-TAF: